Wetterverlauf

Letzte Wetterlage 23.07.2014 17:45
Wetterdiagramm
Tabellarische Darstellung
Datum Temperatur Windchill Feuchte Luftdruck Windrichtung Windstärke Niederschlag
23.07.2014 17:45 31,2 °C 31,2 °C 36 % 1015,5 hPa 90 0.5 0,00 mm
23.07.2014 17:30 30,8 °C 30,8 °C 36 % 1015,7 hPa 105 0.5 0,00 mm
23.07.2014 17:10 30,9 °C 30,9 °C 36 % 1015,8 hPa 90 0.0 0,00 mm
23.07.2014 17:00 31,2 °C 31,2 °C 39 % 1015,9 hPa 99 0.0 0,00 mm
23.07.2014 16:45 29,6 °C 29,6 °C 42 % 1016,1 hPa 97 0.0 0,00 mm
23.07.2014 16:30 27,9 °C 27,9 °C 45 % 1016,2 hPa 112 0.0 0,00 mm
23.07.2014 16:10 31,2 °C 31,2 °C 37 % 1016,4 hPa 90 1.4 0,00 mm
23.07.2014 16:00 30,5 °C 30,5 °C 38 % 1016,4 hPa 109 0.5 0,00 mm
23.07.2014 15:45 30,9 °C 30,9 °C 37 % 1016,6 hPa 136 0.5 0,00 mm
23.07.2014 15:30 30,5 °C 30,5 °C 41 % 1016,6 hPa 124 0.5 0,00 mm
23.07.2014 15:10 30,1 °C 30,1 °C 42 % 1016,8 hPa 270 1.4 0,00 mm
23.07.2014 15:00 30,1 °C 30,1 °C 42 % 1016,9 hPa 104 0.5 0,00 mm
23.07.2014 14:45 30,5 °C 30,5 °C 38 % 1017,0 hPa 143 1.0 0,00 mm
23.07.2014 14:30 30,3 °C 30,3 °C 39 % 1017,2 hPa 109 0.5 0,00 mm
23.07.2014 14:10 29,4 °C 29,4 °C 41 % 1017,3 hPa 90 1.4 0,00 mm
23.07.2014 14:00 30,1 °C 30,1 °C 43 % 1017,4 hPa 91 0.5 0,00 mm
23.07.2014 13:45 29,4 °C 29,4 °C 46 % 1017,5 hPa 111 0.5 0,00 mm
23.07.2014 13:30 29,2 °C 29,2 °C 45 % 1017,5 hPa 116 0.5 0,00 mm
23.07.2014 13:10 29,3 °C 29,3 °C 46 % 1017,6 hPa 90 0.6 0,00 mm
23.07.2014 13:00 29,5 °C 29,5 °C 46 % 1017,6 hPa 103 0.5 0,00 mm
23.07.2014 12:45 28,8 °C 28,8 °C 48 % 1017,7 hPa 93 0.5 0,00 mm
23.07.2014 12:30 28,8 °C 28,8 °C 50 % 1017,8 hPa 120 0.0 0,00 mm
23.07.2014 12:10 28,8 °C 28,8 °C 50 % 1018,0 hPa 315 0.0 0,00 mm
23.07.2014 12:00 28,7 °C 28,7 °C 52 % 1018,0 hPa 114 0.0 0,00 mm
23.07.2014 11:45 28,7 °C 28,7 °C 51 % 1018,0 hPa 148 0.5 0,00 mm
Empfehlen Sie wetter.com
| Mehr
Neue Wetterwarnung

Neue Niederschlagsmeldung
Neue Meldung
Regen Liveticker
    sehr starker Regen/Gewitter
    starker Regen/Gewitter
    mäßiger bis starker Regen
    mäßiger Regen
    leichter bis mäßiger Regen
    kein Regen